Decoded Metar for KMAO (MARION in SC, USA) (IATA:MAO) | Meteo·Mobile Aviation Weather
aviador You're here:

KMAO Decoded Metar

MARION in SC, USA
Report Time2019-04-23 16:15:00
UTC Time2019-04-23 16:19:10
Flight Rules vfr VFR
Wind200° at 04 kt
W.Decomp.*RWY 22: 3.9 kt HW 1 kt LCW
Visibility9999 m
Phenomena:N/A
Clouds:N/A
Expected CloudBase > 5,200 ft AGL from Temp-Dew spread
CeilingNone
Temp24°C (ISA +9)
Dew Point11°C (44% RH)
AAT22.9°C
QNH1020 hPa
Density Alt1,099 ft
Elevation92 ft
Report Wrong Elevation
Raw Report
KMAO 231615Z AUTO 20004KT 10SM CLR 24/11 A3011 RMK AO2=

Extra information for KMAO:More info

Metar Taf Metar & Taf Last 4 Metars F.Rules Stats Wind Profile Meteogram Temp Stats Airport Information Weather charts Add Link Nearby VenuesMetar ALERT Operation Metar Decoded Social comments

AIRNAV info for KMAO